Time;durP1;ratioP1;P1;durP2;ratioP2;P2;SDS_P1;SDS_P2;PMS_P1;PMS_P2;Temp;Humidity;BMP_temperature;BMP_pressure;BME280_temperature;BME280_humidity;BME280_pressure;Samples;Min_cycle;Max_cycle;Signal;HPM_P1;HPM_P2
2022/06/19 00:01:15;;;;;;;9.68;1.75;;;21.20;99.90;;;;;;5054616;28;20171;-82
2022/06/19 00:03:48;;;;;;;6.65;1.40;;;21.00;99.90;;;;;;5054561;28;20238;-81
2022/06/19 00:06:14;;;;;;;9.48;1.63;;;20.80;99.90;;;;;;5053143;28;20175;-82
2022/06/19 00:08:39;;;;;;;7.78;1.98;;;20.90;99.90;;;;;;5054196;28;20191;-81
2022/06/19 00:11:07;;;;;;;4.88;1.55;;;21.10;99.90;;;;;;5055032;28;20508;-82
2022/06/19 00:13:33;;;;;;;3.67;1.88;;;21.00;99.90;;;;;;5054537;28;20261;-80
2022/06/19 00:15:59;;;;;;;9.02;2.03;;;21.00;99.90;;;;;;5052648;28;20258;-82
2022/06/19 00:18:24;;;;;;;11.15;2.05;;;20.90;99.90;;;;;;5054564;28;20234;-82
2022/06/19 00:20:50;;;;;;;8.15;1.75;;;20.80;99.90;;;;;;5053494;28;20167;-81
2022/06/19 00:23:16;;;;;;;8.50;2.67;;;20.40;99.90;;;;;;5053672;28;20258;-82
2022/06/19 00:25:42;;;;;;;9.98;2.00;;;20.20;99.90;;;;;;5057628;28;20642;-81
2022/06/19 00:28:08;;;;;;;7.18;2.28;;;20.10;99.90;;;;;;5055771;28;20565;-81
2022/06/19 00:30:34;;;;;;;15.80;2.55;;;19.90;99.90;;;;;;5057162;28;20521;-81
2022/06/19 00:33:00;;;;;;;4.82;2.03;;;19.80;99.90;;;;;;5055598;28;20520;-82
2022/06/19 00:35:26;;;;;;;6.18;1.88;;;19.90;99.90;;;;;;5055174;28;20163;-80
2022/06/19 00:37:53;;;;;;;8.70;2.25;;;20.00;99.90;;;;;;5054781;28;20207;-81
2022/06/19 00:40:19;;;;;;;3.20;1.77;;;20.10;99.90;;;;;;5071563;28;20168;-81
2022/06/19 00:42:45;;;;;;;7.75;1.88;;;20.10;99.90;;;;;;5073653;28;20188;-82
2022/06/19 00:45:40;;;;;;;16.83;2.42;;;20.10;99.90;;;;;;5075476;28;20175;-82
2022/06/19 00:48:28;;;;;;;15.23;2.38;;;20.10;99.90;;;;;;5076580;28;20229;-81
2022/06/19 00:50:55;;;;;;;10.82;2.10;;;20.00;99.90;;;;;;5076382;28;20214;-82
2022/06/19 00:53:31;;;;;;;12.20;1.85;;;19.90;99.90;;;;;;5071614;28;20167;-81
2022/06/19 00:55:57;;;;;;;9.30;1.67;;;19.90;99.90;;;;;;5052845;28;20277;-82
2022/06/19 00:58:27;;;;;;;12.43;2.20;;;19.80;99.90;;;;;;5052352;28;20215;-82
2022/06/19 01:00:58;;;;;;;11.77;2.45;;;19.70;99.90;;;;;;5052246;28;20193;-81
2022/06/19 01:03:31;;;;;;;27.00;2.33;;;19.70;99.90;;;;;;5053711;28;20550;-82
2022/06/19 01:05:58;;;;;;;12.35;3.55;;;19.60;99.90;;;;;;5053921;28;20163;-81
2022/06/19 01:08:23;;;;;;;14.13;3.28;;;19.50;99.90;;;;;;5053600;28;20186;-81
2022/06/19 01:10:52;;;;;;;17.25;3.03;;;19.40;99.90;;;;;;5052005;28;20178;-82
2022/06/19 01:13:20;;;;;;;11.20;2.30;;;19.10;99.90;;;;;;5051831;28;20164;-80
2022/06/19 01:15:47;;;;;;;51.78;5.13;;;18.90;99.90;;;;;;5052121;28;20174;-79
2022/06/19 01:18:13;;;;;;;11.25;2.38;;;19.00;99.90;;;;;;5053179;28;20214;-80
2022/06/19 01:20:41;;;;;;;7.55;2.65;;;19.00;99.90;;;;;;5053203;28;20554;-81
2022/06/19 01:23:39;;;;;;;6.80;2.22;;;18.80;99.90;;;;;;5052972;28;20171;-80
2022/06/19 01:26:05;;;;;;;15.25;2.20;;;18.80;99.90;;;;;;5050503;28;20516;-81
2022/06/19 01:28:45;;;;;;;35.45;3.08;;;18.80;99.90;;;;;;5052710;28;20185;-80
2022/06/19 01:31:20;;;;;;;51.42;2.90;;;18.50;99.90;;;;;;5053174;28;20171;-81
2022/06/19 01:34:29;;;;;;;6.85;1.58;;;18.40;99.90;;;;;;5053234;28;20167;-82
2022/06/19 01:37:06;;;;;;;15.00;2.20;;;18.40;99.90;;;;;;5052482;28;20203;-81
2022/06/19 01:39:39;;;;;;;30.23;1.60;;;18.20;99.90;;;;;;5051266;28;20253;-83
2022/06/19 01:42:07;;;;;;;12.20;1.60;;;18.20;99.90;;;;;;5052588;28;20516;-83
2022/06/19 01:44:33;;;;;;;31.58;2.75;;;18.00;99.90;;;;;;5051435;28;20297;-82
2022/06/19 01:47:00;;;;;;;22.10;1.83;;;18.20;99.90;;;;;;5052756;28;20670;-80
2022/06/19 01:49:29;;;;;;;15.77;1.75;;;18.20;99.90;;;;;;5051591;28;20186;-80
2022/06/19 01:51:54;;;;;;;4.38;1.15;;;18.10;99.90;;;;;;5052934;28;20632;-81
2022/06/19 01:54:29;;;;;;;8.00;1.58;;;18.10;99.90;;;;;;5052756;28;20167;-81
2022/06/19 01:56:56;;;;;;;9.48;1.02;;;18.00;99.90;;;;;;5052328;28;20187;-83
2022/06/19 01:59:26;;;;;;;14.60;2.10;;;18.00;99.90;;;;;;5051714;28;20175;-81
2022/06/19 02:01:54;;;;;;;7.00;1.23;;;18.00;99.90;;;;;;5051391;28;20616;-83
2022/06/19 02:04:21;;;;;;;12.02;1.13;;;18.10;99.90;;;;;;5052505;28;20258;-81
2022/06/19 02:06:51;;;;;;;11.77;1.70;;;18.00;99.90;;;;;;5052549;28;20710;-83
2022/06/19 02:09:20;;;;;;;6.15;1.58;;;17.90;99.90;;;;;;5052343;28;20167;-79
2022/06/19 02:11:45;;;;;;;5.15;1.20;;;17.90;99.90;;;;;;5050956;28;20574;-80
2022/06/19 02:14:13;;;;;;;24.70;1.50;;;18.00;99.90;;;;;;5052264;28;20186;-81
2022/06/19 02:16:42;;;;;;;33.40;1.88;;;17.80;99.90;;;;;;5051967;28;20163;-80
2022/06/19 02:19:09;;;;;;;60.72;2.70;;;17.80;99.90;;;;;;5052627;28;20252;-80
2022/06/19 02:21:39;;;;;;;10.52;1.30;;;17.70;99.90;;;;;;5052408;28;20163;-81
2022/06/19 02:24:07;;;;;;;23.90;1.58;;;17.80;99.90;;;;;;5052438;28;20179;-80
2022/06/19 02:26:36;;;;;;;35.70;2.47;;;17.70;99.90;;;;;;5051973;28;20173;-80
2022/06/19 02:29:03;;;;;;;12.75;1.20;;;17.60;99.90;;;;;;5052069;28;20637;-81
2022/06/19 02:31:31;;;;;;;5.43;0.60;;;17.60;99.90;;;;;;5050999;28;20198;-81
2022/06/19 02:34:02;;;;;;;8.55;1.35;;;17.70;99.90;;;;;;5052150;28;20209;-81
2022/06/19 02:36:34;;;;;;;14.30;1.55;;;17.70;99.90;;;;;;5052065;28;20163;-81
2022/06/19 02:39:12;;;;;;;11.45;1.30;;;17.80;99.90;;;;;;5051996;28;20662;-81
2022/06/19 02:41:45;;;;;;;14.25;1.35;;;17.70;99.90;;;;;;5051966;28;20167;-82
2022/06/19 02:44:11;;;;;;;7.05;0.90;;;17.80;99.90;;;;;;5052213;28;20171;-82
2022/06/19 02:46:36;;;;;;;6.72;1.27;;;17.80;99.90;;;;;;5052010;28;20170;-81
2022/06/19 02:49:03;;;;;;;7.57;1.23;;;17.80;99.90;;;;;;5052109;28;20511;-82
2022/06/19 02:51:29;;;;;;;5.28;1.20;;;17.70;99.90;;;;;;5050827;28;20176;-81
2022/06/19 02:53:54;;;;;;;6.38;0.68;;;17.80;99.90;;;;;;5052259;28;20175;-80
2022/06/19 02:56:20;;;;;;;14.35;1.35;;;17.80;99.90;;;;;;5050912;28;20265;-81
2022/06/19 02:58:46;;;;;;;6.13;0.98;;;17.70;99.90;;;;;;5050628;28;20284;-81
2022/06/19 03:01:13;;;;;;;4.78;1.27;;;17.80;99.90;;;;;;5052076;28;20234;-80
2022/06/19 03:03:38;;;;;;;3.50;1.13;;;17.70;99.90;;;;;;5050729;28;20179;-81
2022/06/19 03:06:05;;;;;;;5.38;1.00;;;17.70;99.90;;;;;;5051761;28;20615;-80
2022/06/19 03:08:30;;;;;;;6.00;1.10;;;17.60;99.90;;;;;;5051580;28;20214;-81
2022/06/19 03:10:56;;;;;;;4.65;0.90;;;17.50;99.90;;;;;;5051869;28;20631;-81
2022/06/19 03:13:22;;;;;;;6.53;0.80;;;17.40;99.90;;;;;;5051877;28;20171;-80
2022/06/19 03:15:59;;;;;;;3.42;0.82;;;17.30;99.90;;;;;;5051718;28;20171;-80
2022/06/19 03:18:25;;;;;;;4.85;0.98;;;17.40;99.90;;;;;;5051634;28;20211;-79
2022/06/19 03:20:50;;;;;;;3.33;0.88;;;17.40;99.90;;;;;;5051176;28;20266;-80
2022/06/19 03:23:16;;;;;;;2.80;0.90;;;17.40;99.90;;;;;;5051836;28;20646;-80
2022/06/19 03:25:42;;;;;;;10.82;1.33;;;17.40;99.90;;;;;;5050255;28;20176;-81
2022/06/19 03:28:07;;;;;;;3.92;0.98;;;17.50;99.90;;;;;;5053627;28;20222;-80
2022/06/19 03:30:33;;;;;;;3.85;1.15;;;17.50;99.90;;;;;;5053902;28;20224;-80
2022/06/19 03:32:58;;;;;;;3.72;1.25;;;17.40;99.90;;;;;;5053939;28;20175;-80
2022/06/19 03:35:24;;;;;;;2.45;0.82;;;17.30;99.90;;;;;;5055322;28;20175;-80
2022/06/19 03:37:50;;;;;;;4.72;0.82;;;17.30;99.90;;;;;;5054978;28;20207;-80
2022/06/19 03:40:15;;;;;;;11.02;0.82;;;17.30;99.90;;;;;;5055296;28;20578;-82
2022/06/19 03:42:41;;;;;;;7.75;0.95;;;17.30;99.90;;;;;;5054909;28;20182;-81
2022/06/19 03:45:07;;;;;;;9.38;1.02;;;17.30;99.90;;;;;;5055304;28;20163;-80
2022/06/19 03:47:33;;;;;;;3.95;1.02;;;17.10;99.90;;;;;;5053539;28;20596;-81
2022/06/19 03:50:00;;;;;;;3.50;0.98;;;17.10;99.90;;;;;;5054728;28;20246;-81
2022/06/19 03:52:26;;;;;;;9.38;0.90;;;17.10;99.90;;;;;;5054771;28;20977;-81
2022/06/19 03:54:51;;;;;;;13.93;1.05;;;17.20;99.90;;;;;;5054901;28;20183;-82
2022/06/19 03:57:17;;;;;;;2.33;0.70;;;17.30;99.90;;;;;;5054571;28;20210;-81
2022/06/19 03:59:43;;;;;;;9.43;1.20;;;17.20;99.90;;;;;;5055026;28;20254;-79
2022/06/19 04:02:10;;;;;;;1.85;0.80;;;17.10;99.90;;;;;;5053554;28;20635;-81
2022/06/19 04:04:39;;;;;;;6.10;0.98;;;17.10;99.90;;;;;;5053714;28;20257;-81
2022/06/19 04:07:05;;;;;;;2.92;0.90;;;17.20;99.90;;;;;;5053221;28;20218;-79
2022/06/19 04:09:31;;;;;;;11.02;1.05;;;17.20;99.90;;;;;;5054448;28;20175;-80
2022/06/19 04:11:56;;;;;;;4.13;0.75;;;17.30;99.90;;;;;;5054585;28;20167;-82
2022/06/19 04:14:22;;;;;;;10.73;1.20;;;17.50;99.90;;;;;;5053427;28;20313;-81
2022/06/19 04:16:47;;;;;;;6.70;0.77;;;17.60;99.90;;;;;;5054513;28;21786;-80
2022/06/19 04:19:13;;;;;;;6.68;0.98;;;17.60;99.90;;;;;;5053271;28;20197;-81
2022/06/19 04:21:45;;;;;;;5.38;0.88;;;17.70;99.90;;;;;;5053021;28;20170;-81
2022/06/19 04:24:13;;;;;;;8.77;0.90;;;17.70;99.90;;;;;;5052964;28;20249;-80
2022/06/19 04:26:40;;;;;;;13.35;0.93;;;17.70;99.90;;;;;;5053053;28;20164;-80
2022/06/19 04:29:07;;;;;;;2.53;0.70;;;17.50;99.90;;;;;;5052996;28;20219;-82
2022/06/19 04:31:33;;;;;;;6.40;0.88;;;17.30;99.90;;;;;;5052714;28;20167;-80
2022/06/19 04:33:59;;;;;;;13.73;1.10;;;17.30;99.90;;;;;;5053868;28;20650;-80
2022/06/19 04:36:28;;;;;;;3.15;1.13;;;17.40;99.90;;;;;;5054088;28;20168;-82
2022/06/19 04:38:56;;;;;;;7.05;1.02;;;17.30;99.90;;;;;;5053481;28;20666;-80
2022/06/19 04:41:28;;;;;;;7.07;0.90;;;17.10;99.90;;;;;;5053065;28;20693;-81
2022/06/19 04:43:56;;;;;;;10.63;1.10;;;17.10;99.90;;;;;;5054191;28;20165;-81
2022/06/19 04:46:22;;;;;;;6.22;0.80;;;17.40;99.90;;;;;;5054098;28;20225;-83
2022/06/19 04:48:49;;;;;;;10.60;0.90;;;17.30;99.90;;;;;;5054160;28;20179;-81
2022/06/19 04:51:15;;;;;;;4.25;0.85;;;17.10;99.90;;;;;;5053669;28;20178;-80
2022/06/19 04:53:41;;;;;;;6.78;0.63;;;17.10;99.90;;;;;;5053801;28;20553;-81
2022/06/19 04:56:08;;;;;;;9.30;1.00;;;17.10;99.90;;;;;;5052509;28;20186;-82
2022/06/19 04:58:35;;;;;;;7.50;0.82;;;17.20;99.90;;;;;;5053630;28;20265;-80
2022/06/19 05:01:03;;;;;;;8.45;1.13;;;17.30;99.90;;;;;;5053544;28;20242;-81
2022/06/19 05:03:29;;;;;;;4.30;0.80;;;17.40;99.90;;;;;;5053400;28;20566;-81
2022/06/19 05:05:55;;;;;;;2.00;0.73;;;17.40;99.90;;;;;;5053477;28;20673;-80
2022/06/19 05:08:21;;;;;;;2.95;0.70;;;17.40;99.90;;;;;;5052236;28;20207;-81
2022/06/19 05:10:49;;;;;;;1.63;0.93;;;17.50;99.90;;;;;;5053738;28;20171;-82
2022/06/19 05:13:17;;;;;;;7.00;0.73;;;17.70;99.90;;;;;;5053328;28;20179;-81
2022/06/19 05:15:44;;;;;;;4.72;0.70;;;17.90;99.90;;;;;;5052087;28;20170;-81
2022/06/19 05:18:10;;;;;;;5.15;0.65;;;17.90;99.90;;;;;;5051590;28;20214;-81
2022/06/19 05:20:37;;;;;;;2.60;0.77;;;18.10;99.90;;;;;;5053246;28;20163;-81
2022/06/19 05:23:03;;;;;;;0.95;0.52;;;18.30;99.90;;;;;;5053044;28;20167;-81
2022/06/19 05:25:29;;;;;;;1.58;0.60;;;18.50;99.90;;;;;;5052006;28;20163;-81
2022/06/19 05:27:54;;;;;;;8.98;1.95;;;18.70;99.90;;;;;;5051506;28;20229;-81
2022/06/19 05:30:20;;;;;;;6.68;0.90;;;18.70;99.90;;;;;;5053150;28;20639;-82
2022/06/19 05:32:46;;;;;;;2.40;0.82;;;18.70;99.90;;;;;;5053147;28;20202;-81
2022/06/19 05:35:12;;;;;;;5.80;0.80;;;18.60;99.90;;;;;;5051363;28;20171;-81
2022/06/19 05:37:38;;;;;;;7.57;0.75;;;18.30;99.90;;;;;;5052743;28;20709;-81
2022/06/19 05:40:06;;;;;;;10.63;1.00;;;18.00;99.90;;;;;;5051688;28;20171;-80
2022/06/19 05:42:31;;;;;;;1.95;0.70;;;17.90;99.90;;;;;;5052973;28;20164;-80
2022/06/19 05:44:57;;;;;;;3.33;0.60;;;17.90;99.90;;;;;;5052943;28;20632;-81
2022/06/19 05:47:23;;;;;;;9.95;0.90;;;17.70;99.90;;;;;;5051112;28;20237;-81
2022/06/19 05:49:49;;;;;;;10.18;0.88;;;17.50;99.90;;;;;;5052313;28;20197;-81
2022/06/19 05:52:24;;;;;;;1.98;0.60;;;17.40;99.90;;;;;;5051719;28;20163;-80
2022/06/19 05:54:51;;;;;;;3.28;0.77;;;17.30;99.90;;;;;;5051382;28;20572;-81
2022/06/19 05:57:16;;;;;;;8.73;0.73;;;17.30;99.90;;;;;;5052330;28;20203;-80
2022/06/19 05:59:42;;;;;;;6.50;0.80;;;17.30;99.90;;;;;;5051453;28;20171;-80
2022/06/19 06:02:12;;;;;;;3.63;0.90;;;17.40;99.90;;;;;;5051301;28;20167;-81
2022/06/19 06:04:37;;;;;;;11.35;1.08;;;17.50;99.90;;;;;;5051312;28;20198;-79
2022/06/19 06:07:06;;;;;;;4.10;0.85;;;17.60;99.90;;;;;;5052531;28;20183;-81
2022/06/19 06:09:33;;;;;;;7.30;0.57;;;17.60;99.90;;;;;;5052702;28;20169;-80
2022/06/19 06:11:59;;;;;;;2.17;0.52;;;17.50;99.90;;;;;;5052445;28;20171;-88
2022/06/19 06:14:25;;;;;;;1.55;0.85;;;17.50;99.90;;;;;;5053496;28;20167;-86
2022/06/19 06:16:50;;;;;;;7.95;0.77;;;17.50;99.90;;;;;;5051704;28;20202;-83
2022/06/19 06:19:16;;;;;;;7.03;0.90;;;17.60;99.90;;;;;;5051826;28;20211;-83
2022/06/19 06:21:42;;;;;;;7.00;0.90;;;17.40;99.90;;;;;;5051754;28;20813;-84
2022/06/19 06:24:07;;;;;;;7.00;0.80;;;17.20;99.90;;;;;;5051967;28;20261;-83
2022/06/19 06:26:34;;;;;;;11.77;1.08;;;16.80;99.90;;;;;;5053243;28;20626;-85
2022/06/19 06:29:00;;;;;;;3.78;0.80;;;16.60;99.90;;;;;;5051684;28;20163;-89
2022/06/19 06:31:26;;;;;;;8.75;0.90;;;16.20;99.90;;;;;;5052707;28;20236;-83
2022/06/19 06:33:52;;;;;;;6.35;0.98;;;15.80;99.90;;;;;;5053138;28;20163;-84
2022/06/19 06:36:17;;;;;;;5.82;1.10;;;15.40;99.90;;;;;;5053434;28;20665;-79
2022/06/19 06:38:44;;;;;;;9.70;1.50;;;15.00;99.90;;;;;;5053000;28;20248;-79
2022/06/19 06:41:12;;;;;;;6.60;0.98;;;14.70;99.90;;;;;;5053356;28;20175;-80
2022/06/19 06:43:40;;;;;;;6.57;1.15;;;14.50;99.90;;;;;;5053254;28;20175;-83
2022/06/19 06:46:15;;;;;;;4.47;1.13;;;14.60;99.90;;;;;;5052788;28;20719;-79
2022/06/19 06:48:42;;;;;;;5.47;1.20;;;14.60;99.90;;;;;;5051125;28;20269;-79
2022/06/19 06:51:10;;;;;;;10.77;1.35;;;14.90;99.90;;;;;;5052218;28;20167;-79
2022/06/19 06:53:36;;;;;;;9.38;1.38;;;15.10;99.90;;;;;;5052748;28;20170;-85
2022/06/19 06:56:02;;;;;;;12.98;1.35;;;15.20;99.90;;;;;;5053169;28;20601;-85
2022/06/19 06:58:28;;;;;;;16.73;1.20;;;15.20;99.90;;;;;;5052716;28;20919;-86
2022/06/19 07:00:54;;;;;;;8.65;1.17;;;15.40;99.90;;;;;;5051787;28;20632;-84
2022/06/19 07:03:21;;;;;;;5.13;1.45;;;15.50;99.90;;;;;;5055768;28;20175;-83
2022/06/19 07:05:47;;;;;;;4.15;1.20;;;15.60;99.90;;;;;;5057172;28;20172;-85
2022/06/19 07:08:12;;;;;;;12.18;1.45;;;15.80;99.90;;;;;;5055292;28;20194;-80
2022/06/19 07:10:38;;;;;;;7.60;1.38;;;15.80;99.90;;;;;;5056610;28;20182;-85
2022/06/19 07:13:04;;;;;;;10.98;1.50;;;15.80;99.90;;;;;;5055279;28;20496;-85
2022/06/19 07:15:30;;;;;;;5.00;1.25;;;15.70;99.90;;;;;;5056329;28;20635;-83
2022/06/19 07:17:55;;;;;;;6.97;1.17;;;15.60;99.90;;;;;;5055052;28;20272;-85
2022/06/19 07:20:21;;;;;;;15.88;1.38;;;15.60;99.90;;;;;;5056005;28;20159;-82
2022/06/19 07:22:47;;;;;;;11.23;1.33;;;15.40;99.90;;;;;;5054517;28;20171;-87
2022/06/19 07:25:20;;;;;;;9.55;1.73;;;15.50;99.90;;;;;;5055938;28;20169;-83
2022/06/19 07:27:46;;;;;;;6.88;1.25;;;15.60;99.90;;;;;;5055874;28;20279;-86
2022/06/19 07:30:18;;;;;;;13.95;2.08;;;15.60;99.90;;;;;;5056319;28;20159;-80
2022/06/19 07:32:44;;;;;;;5.50;1.25;;;15.60;99.90;;;;;;5056198;28;20167;-85
2022/06/19 07:35:10;;;;;;;7.93;1.58;;;15.50;99.90;;;;;;5056131;28;20166;-80
2022/06/19 07:37:35;;;;;;;15.73;1.92;;;15.40;99.90;;;;;;5055269;28;20671;-84
2022/06/19 07:40:02;;;;;;;14.65;1.35;;;15.30;99.90;;;;;;5055207;28;20175;-82
2022/06/19 07:42:27;;;;;;;14.20;1.40;;;15.00;99.90;;;;;;5054281;28;20178;-87
2022/06/19 07:44:53;;;;;;;6.38;1.70;;;15.00;99.90;;;;;;5055415;28;20522;-81
2022/06/19 07:50:09;;;;;;;15.70;2.05;;;14.90;99.90;;;;;;5055615;28;20597;-85
2022/06/19 07:52:38;;;;;;;16.75;1.55;;;14.90;99.90;;;;;;5055528;28;20175;-84
2022/06/19 07:55:05;;;;;;;10.75;2.13;;;14.90;99.90;;;;;;5055512;28;20219;-80
2022/06/19 07:57:31;;;;;;;12.98;1.95;;;14.80;99.90;;;;;;5054669;28;20293;-80
2022/06/19 07:59:57;;;;;;;5.38;1.30;;;15.00;99.90;;;;;;5055188;28;20195;-82
2022/06/19 08:02:24;;;;;;;15.40;1.63;;;15.20;99.90;;;;;;5055247;28;20199;-82
2022/06/19 08:04:50;;;;;;;6.35;1.63;;;15.30;99.90;;;;;;5054921;28;20159;-81
2022/06/19 08:07:17;;;;;;;9.35;2.08;;;15.30;99.90;;;;;;5053629;28;20281;-85
2022/06/19 08:09:42;;;;;;;18.67;2.08;;;15.50;99.90;;;;;;5053939;28;20163;-84
2022/06/19 08:12:09;;;;;;;5.03;1.30;;;15.90;99.90;;;;;;5053642;28;20209;-81
2022/06/19 08:14:34;;;;;;;13.45;1.30;;;16.40;99.90;;;;;;5053766;28;20164;-83
2022/06/19 08:17:00;;;;;;;4.90;1.08;;;17.00;99.90;;;;;;5054436;28;20195;-85
2022/06/19 08:19:26;;;;;;;6.68;1.55;;;17.40;99.90;;;;;;5052960;28;20183;-82
2022/06/19 08:21:51;;;;;;;7.97;1.30;;;17.80;99.90;;;;;;5054814;28;20695;-84
2022/06/19 08:24:17;;;;;;;9.30;1.15;;;18.10;99.90;;;;;;5054880;28;20175;-82
2022/06/19 08:26:43;;;;;;;10.05;1.95;;;18.10;99.90;;;;;;5052942;28;20198;-82
2022/06/19 08:29:09;;;;;;;6.25;1.25;;;18.30;99.90;;;;;;5054390;28;20190;-81
2022/06/19 08:31:35;;;;;;;14.80;2.10;;;18.40;99.90;;;;;;5054115;28;20163;-81
2022/06/19 08:34:01;;;;;;;4.60;0.93;;;18.50;99.90;;;;;;5052925;28;20172;-82
2022/06/19 08:36:28;;;;;;;8.68;1.55;;;18.40;99.90;;;;;;5054077;28;20229;-81
2022/06/19 08:38:57;;;;;;;5.97;1.70;;;18.50;99.90;;;;;;5052499;28;20244;-81
2022/06/19 08:42:00;;;;;;;8.30;1.73;;;18.20;99.90;;;;;;5053870;28;20186;-81
2022/06/19 08:45:03;;;;;;;9.40;1.63;;;18.00;99.90;;;;;;5052688;28;20650;-81
2022/06/19 08:47:45;;;;;;;7.72;1.95;;;18.00;99.90;;;;;;5053812;28;20705;-82
2022/06/19 08:50:22;;;;;;;10.75;2.10;;;17.80;99.90;;;;;;5054016;28;20198;-81
2022/06/19 08:53:12;;;;;;;12.50;2.10;;;17.50;99.90;;;;;;5052358;28;20170;-81
2022/06/19 08:55:50;;;;;;;9.20;2.33;;;17.10;99.90;;;;;;5052407;28;20179;-81
2022/06/19 08:58:34;;;;;;;11.40;2.08;;;17.10;99.90;;;;;;5052971;28;20289;-80
2022/06/19 09:01:29;;;;;;;12.40;2.72;;;16.90;99.90;;;;;;5052076;28;20270;-81
2022/06/19 09:06:53;;;;;;;5.82;2.00;;;17.20;99.90;;;;;;5053406;28;20274;-81
2022/06/19 09:09:21;;;;;;;13.35;1.98;;;17.50;99.90;;;;;;5052305;28;20167;-83
2022/06/19 09:12:18;;;;;;;7.15;1.60;;;17.70;99.90;;;;;;5044640;28;20185;-81
2022/06/19 09:14:55;;;;;;;6.85;1.75;;;18.10;99.90;;;;;;5047714;28;20180;-85
2022/06/19 09:17:57;;;;;;;5.90;1.75;;;18.60;99.90;;;;;;5052832;28;20302;-81
2022/06/19 09:20:28;;;;;;;3.88;1.40;;;18.60;99.90;;;;;;5053870;28;20167;-82
2022/06/19 09:23:16;;;;;;;9.38;1.55;;;18.60;99.90;;;;;;5051436;28;20540;-81
2022/06/19 09:26:08;;;;;;;8.20;1.80;;;18.70;99.90;;;;;;5052516;28;20190;-81
2022/06/19 09:28:54;;;;;;;5.55;1.70;;;18.40;99.90;;;;;;5052775;28;20583;-81
2022/06/19 09:31:29;;;;;;;2.70;1.55;;;18.40;99.90;;;;;;5053173;28;20253;-82
2022/06/19 09:34:28;;;;;;;11.35;1.80;;;18.50;99.90;;;;;;5051006;28;20626;-82
2022/06/19 09:37:19;;;;;;;7.82;1.70;;;18.40;99.90;;;;;;5052417;28;20225;-81
2022/06/19 09:39:52;;;;;;;4.70;1.30;;;18.00;99.90;;;;;;5051212;28;20278;-82
2022/06/19 09:42:31;;;;;;;4.15;1.52;;;17.80;99.90;;;;;;5052652;28;20213;-81
2022/06/19 09:45:03;;;;;;;5.60;1.65;;;17.80;99.90;;;;;;5053245;28;20620;-81
2022/06/19 09:47:42;;;;;;;10.10;1.92;;;17.80;99.90;;;;;;5052694;28;20631;-81
2022/06/19 09:50:34;;;;;;;2.45;1.30;;;18.10;99.90;;;;;;5052867;28;20163;-81
2022/06/19 09:53:16;;;;;;;10.13;1.52;;;18.30;99.90;;;;;;5051470;28;20539;-83
2022/06/19 09:55:49;;;;;;;9.32;2.10;;;18.50;99.90;;;;;;5054852;28;20545;-83
2022/06/19 09:58:25;;;;;;;10.63;1.85;;;18.50;99.90;;;;;;5052321;28;20190;-83
2022/06/19 10:00:56;;;;;;;7.53;1.95;;;18.50;99.90;;;;;;5052842;28;20171;-83
2022/06/19 10:03:41;;;;;;;17.45;2.28;;;18.70;99.90;;;;;;5052670;28;20164;-83
2022/06/19 10:06:20;;;;;;;6.00;1.80;;;18.90;99.90;;;;;;5051965;28;20170;-83
2022/06/19 10:09:01;;;;;;;6.93;2.10;;;18.60;99.90;;;;;;5054138;28;20206;-84
2022/06/19 10:11:48;;;;;;;6.32;1.52;;;18.70;99.90;;;;;;5053100;28;20167;-83
2022/06/19 10:14:49;;;;;;;5.60;1.55;;;18.70;99.90;;;;;;5060793;28;20167;-84
2022/06/19 10:17:28;;;;;;;7.00;1.50;;;18.90;99.90;;;;;;5037099;28;20199;-84
2022/06/19 10:20:08;;;;;;;9.35;1.60;;;18.90;99.90;;;;;;5051630;28;20649;-82
2022/06/19 10:22:46;;;;;;;3.97;1.17;;;19.10;99.90;;;;;;5051618;28;20212;-84
2022/06/19 10:25:28;;;;;;;8.85;1.80;;;19.30;99.90;;;;;;5051598;28;20651;-84
2022/06/19 10:28:11;;;;;;;7.90;1.60;;;19.40;99.90;;;;;;5051538;28;20730;-84
2022/06/19 10:31:05;;;;;;;13.45;1.70;;;19.50;99.90;;;;;;5051466;28;20170;-84
2022/06/19 10:33:47;;;;;;;11.38;1.65;;;19.90;99.90;;;;;;5051977;28;20167;-84
2022/06/19 10:36:35;;;;;;;10.55;1.90;;;19.40;99.90;;;;;;5052810;28;20186;-86
2022/06/19 10:39:19;;;;;;;3.55;1.48;;;20.00;99.90;;;;;;5055539;28;20194;-85
2022/06/19 10:42:03;;;;;;;3.70;1.42;;;20.30;99.90;;;;;;5057462;28;20238;-93
2022/06/19 10:44:54;;;;;;;4.15;1.63;;;20.50;99.90;;;;;;5056485;28;20181;-93
2022/06/19 10:47:26;;;;;;;7.47;1.65;;;20.80;99.90;;;;;;5056433;28;20201;-93
2022/06/19 10:50:05;;;;;;;5.35;2.40;;;20.60;99.90;;;;;;5056663;28;20171;-83
2022/06/19 10:53:06;;;;;;;5.88;1.65;;;20.70;99.90;;;;;;5057785;28;20171;-84
2022/06/19 10:56:14;;;;;;;6.63;1.88;;;21.00;99.90;;;;;;5057960;28;20216;-84
2022/06/19 10:58:40;;;;;;;3.97;1.55;;;21.10;99.90;;;;;;5021144;28;20196;-89
2022/06/19 11:01:08;;;;;;;9.98;1.92;;;21.40;99.90;;;;;;5051037;28;20175;-92
2022/06/19 11:04:07;;;;;;;6.13;1.58;;;21.40;99.90;;;;;;5071854;28;20164;-83
2022/06/19 11:06:37;;;;;;;2.85;1.48;;;21.40;99.90;;;;;;5075689;28;20201;-91
2022/06/19 11:09:07;;;;;;;6.50;1.70;;;21.60;99.90;;;;;;5075907;28;20218;-92
2022/06/19 11:11:37;;;;;;;8.32;2.30;;;22.00;99.90;;;;;;5066420;28;20179;-89
2022/06/19 11:14:02;;;;;;;7.13;2.45;;;22.00;99.90;;;;;;5062930;28;20163;-86
2022/06/19 11:16:30;;;;;;;13.05;2.00;;;21.80;99.90;;;;;;5065646;28;20171;-89
2022/06/19 11:18:59;;;;;;;8.23;2.00;;;21.90;99.90;;;;;;5061871;28;20190;-92
2022/06/19 11:21:33;;;;;;;8.85;2.22;;;21.80;99.90;;;;;;5062973;28;20182;-88
2022/06/19 11:24:04;;;;;;;6.78;2.38;;;21.70;99.90;;;;;;5064597;28;20201;-89
2022/06/19 11:26:42;;;;;;;4.03;1.70;;;21.70;99.90;;;;;;5071925;28;20200;-88
2022/06/19 11:29:18;;;;;;;6.45;2.33;;;22.20;99.90;;;;;;5059562;28;20234;-87
2022/06/19 11:32:14;;;;;;;7.50;1.80;;;22.20;99.90;;;;;;5061967;28;20220;-87
2022/06/19 11:34:56;;;;;;;8.27;1.63;;;22.70;99.90;;;;;;5061085;28;20178;-89
2022/06/19 11:37:32;;;;;;;9.50;2.00;;;22.60;99.90;;;;;;5061889;28;20187;-86
2022/06/19 11:40:00;;;;;;;3.38;1.70;;;22.80;99.90;;;;;;5064403;28;20171;-86
2022/06/19 11:42:52;;;;;;;4.65;1.70;;;22.30;99.90;;;;;;5076762;28;20150;-87
2022/06/19 11:45:37;;;;;;;6.85;2.08;;;21.60;99.90;;;;;;5070053;28;20148;-92
2022/06/19 11:48:15;;;;;;;8.60;2.30;;;20.90;99.90;;;;;;5254065;22;20217;-86
2022/06/19 11:50:47;;;;;;;5.53;1.70;;;20.70;99.90;;;;;;5111680;28;20170;-86
2022/06/19 11:53:36;;;;;;;7.00;1.90;;;20.60;99.90;;;;;;5099141;28;20180;-87
2022/06/19 11:56:19;;;;;;;5.38;1.50;;;20.50;99.90;;;;;;5106426;28;20189;-86
2022/06/19 11:59:30;;;;;;;3.28;1.40;;;20.50;99.90;;;;;;5111706;28;20173;-89
2022/06/19 12:01:56;;;;;;;4.82;1.35;;;20.80;99.90;;;;;;5101285;28;20190;-92
2022/06/19 12:04:39;;;;;;;2.55;1.58;;;20.80;99.90;;;;;;5092942;28;20170;-88
2022/06/19 12:07:27;;;;;;;6.18;1.98;;;20.50;99.90;;;;;;5080185;28;20713;-86
2022/06/19 12:10:00;;;;;;;5.30;2.10;;;20.50;99.90;;;;;;5089302;28;20174;-86
2022/06/19 12:12:28;;;;;;;7.00;1.50;;;20.90;99.90;;;;;;5090491;28;20192;-86
2022/06/19 12:15:12;;;;;;;5.53;1.70;;;21.50;99.90;;;;;;5098953;28;20170;-86
2022/06/19 12:17:40;;;;;;;5.90;1.77;;;21.70;99.90;;;;;;5098245;28;20210;-89
2022/06/19 12:20:06;;;;;;;9.13;1.80;;;21.90;99.90;;;;;;5096144;28;20201;-90
2022/06/19 12:22:32;;;;;;;4.70;1.52;;;22.40;99.90;;;;;;5078693;28;20630;-86
2022/06/19 12:25:06;;;;;;;7.13;2.20;;;22.80;99.90;;;;;;5074188;28;20634;-87
2022/06/19 12:27:37;;;;;;;13.10;1.90;;;22.40;99.90;;;;;;5073717;28;20271;-86
2022/06/19 12:30:05;;;;;;;10.82;2.00;;;22.20;99.90;;;;;;5075143;28;20166;-86
2022/06/19 12:32:46;;;;;;;6.50;2.35;;;22.60;99.90;;;;;;5088854;28;20174;-83
2022/06/19 12:35:28;;;;;;;2.85;1.65;;;23.10;99.90;;;;;;5094804;28;20586;-84
2022/06/19 12:37:54;;;;;;;5.03;1.50;;;23.00;99.90;;;;;;5093961;28;20665;-84
2022/06/19 12:40:25;;;;;;;8.70;1.98;;;23.50;99.90;;;;;;5094131;28;20260;-88
2022/06/19 12:43:03;;;;;;;10.93;2.50;;;23.90;99.90;;;;;;5075888;28;20189;-83
2022/06/19 12:45:45;;;;;;;15.82;2.17;;;24.10;99.90;;;;;;5075371;28;20264;-88
2022/06/19 12:48:35;;;;;;;3.42;1.58;;;23.90;99.90;;;;;;5090026;28;20214;-86
2022/06/19 12:51:10;;;;;;;5.22;2.08;;;23.80;99.90;;;;;;5094175;28;20168;-86
2022/06/19 12:53:57;;;;;;;4.95;1.80;;;23.60;99.90;;;;;;5081252;28;20527;-84
2022/06/19 12:57:02;;;;;;;5.82;2.67;;;23.40;99.90;;;;;;5092226;28;20165;-85
2022/06/19 12:59:34;;;;;;;10.10;2.25;;;23.00;99.90;;;;;;5093020;28;20150;-85
2022/06/19 13:02:38;;;;;;;2.22;1.75;;;22.30;99.90;;;;;;5091857;28;20197;-86
2022/06/19 13:05:19;;;;;;;3.90;2.45;;;22.20;99.90;;;;;;5112123;28;20171;-86
2022/06/19 13:08:03;;;;;;;6.20;2.65;;;22.50;99.90;;;;;;5118334;28;20209;-86
2022/06/19 13:10:41;;;;;;;6.10;4.72;;;22.70;99.90;;;;;;5101326;28;20173;-87
2022/06/19 13:13:33;;;;;;;5.22;4.60;;;22.30;99.90;;;;;;5090997;28;20557;-86